Time;durP1;ratioP1;P1;durP2;ratioP2;P2;SDS_P1;SDS_P2;PMS_P1;PMS_P2;Temp;Humidity;BMP_temperature;BMP_pressure;BME280_temperature;BME280_humidity;BME280_pressure;Samples;Min_cycle;Max_cycle;Signal;HPM_P1;HPM_P2
2024/01/04 00:00:23;;;;;;;3.13;0.97;;;9.50;99.90;;;;;;4954422;28;20210;-56
2024/01/04 00:02:52;;;;;;;4.07;0.93;;;9.60;99.90;;;;;;4954828;28;20301;-55
2024/01/04 00:05:18;;;;;;;2.10;0.80;;;9.70;99.90;;;;;;4958594;28;20202;-54
2024/01/04 00:07:44;;;;;;;1.13;0.83;;;9.80;99.90;;;;;;4959111;28;20284;-54
2024/01/04 00:10:10;;;;;;;2.33;0.83;;;9.60;99.90;;;;;;4962656;28;20222;-54
2024/01/04 00:12:36;;;;;;;1.60;1.13;;;9.60;99.90;;;;;;4935730;28;20945;-56
2024/01/04 00:15:04;;;;;;;6.70;1.53;;;9.70;99.90;;;;;;4953463;28;20223;-56
2024/01/04 00:17:30;;;;;;;4.03;1.00;;;9.70;99.90;;;;;;4957981;28;20233;-59
2024/01/04 00:19:56;;;;;;;1.07;1.00;;;9.70;99.90;;;;;;4956532;28;20212;-58
2024/01/04 00:22:22;;;;;;;1.80;1.00;;;9.50;99.90;;;;;;4938431;28;20197;-58
2024/01/04 00:24:48;;;;;;;1.93;0.80;;;9.60;99.90;;;;;;4963240;28;20205;-50
2024/01/04 00:27:13;;;;;;;1.37;0.70;;;9.50;99.90;;;;;;4957516;28;20209;-50
2024/01/04 00:29:39;;;;;;;1.47;0.90;;;9.50;99.90;;;;;;4936714;28;20653;-51
2024/01/04 00:32:04;;;;;;;1.53;1.00;;;9.50;99.90;;;;;;4962877;28;20682;-51
2024/01/04 00:34:30;;;;;;;1.70;0.83;;;9.60;99.90;;;;;;4942917;28;20594;-51
2024/01/04 00:36:57;;;;;;;7.53;1.63;;;9.70;99.90;;;;;;4963451;28;20443;-51
2024/01/04 00:39:24;;;;;;;1.07;0.70;;;9.70;99.90;;;;;;4960835;28;20197;-50
2024/01/04 00:41:51;;;;;;;0.70;0.70;;;9.60;99.90;;;;;;4959699;28;20281;-51
2024/01/04 00:44:17;;;;;;;0.60;0.60;;;9.50;99.90;;;;;;4953708;28;20212;-50
2024/01/04 00:46:42;;;;;;;1.20;1.10;;;9.50;99.90;;;;;;4953415;28;20199;-50
2024/01/04 00:49:08;;;;;;;1.07;0.97;;;9.40;99.90;;;;;;4942643;28;20284;-50
2024/01/04 00:51:33;;;;;;;1.80;1.03;;;9.40;99.90;;;;;;4952698;28;20221;-50
2024/01/04 00:53:59;;;;;;;0.80;0.60;;;9.30;99.90;;;;;;4959034;28;20553;-50
2024/01/04 00:56:31;;;;;;;1.23;0.80;;;9.40;99.90;;;;;;4960704;28;21043;-50
2024/01/04 00:58:56;;;;;;;0.83;0.73;;;9.40;99.90;;;;;;4939032;28;20199;-50
2024/01/04 01:01:22;;;;;;;0.70;0.70;;;9.40;99.90;;;;;;4961845;28;20256;-50
2024/01/04 01:03:47;;;;;;;0.40;0.40;;;9.40;99.90;;;;;;4959396;28;20252;-50
2024/01/04 01:06:13;;;;;;;1.53;0.50;;;9.50;99.90;;;;;;4942795;28;20828;-50
2024/01/04 01:08:39;;;;;;;0.87;0.70;;;9.50;99.90;;;;;;4958826;28;20228;-50
2024/01/04 01:11:04;;;;;;;1.00;0.50;;;9.60;99.90;;;;;;4956885;28;20929;-50
2024/01/04 01:13:30;;;;;;;1.47;0.60;;;9.40;99.90;;;;;;4960503;28;20569;-51
2024/01/04 01:15:56;;;;;;;2.93;0.67;;;9.40;99.90;;;;;;4956129;28;20280;-50
2024/01/04 01:18:21;;;;;;;1.53;0.90;;;9.40;99.90;;;;;;4961701;28;20206;-50
2024/01/04 01:20:47;;;;;;;2.60;1.10;;;9.50;99.90;;;;;;4956351;28;20207;-50
2024/01/04 01:23:12;;;;;;;0.63;0.53;;;9.50;99.90;;;;;;4959894;28;20209;-49
2024/01/04 01:25:38;;;;;;;1.53;0.73;;;9.50;99.90;;;;;;4957652;28;20215;-49
2024/01/04 01:28:04;;;;;;;2.67;0.87;;;9.50;99.90;;;;;;4958807;28;20267;-49
2024/01/04 01:30:29;;;;;;;2.13;0.60;;;9.50;99.90;;;;;;4960272;28;20730;-50
2024/01/04 01:32:55;;;;;;;1.60;0.70;;;9.40;99.90;;;;;;4958969;28;20274;-50
2024/01/04 01:35:21;;;;;;;0.83;0.53;;;9.40;99.90;;;;;;4959948;28;20225;-50
2024/01/04 01:37:47;;;;;;;0.73;0.67;;;9.40;99.90;;;;;;4956930;28;20206;-51
2024/01/04 01:40:12;;;;;;;1.07;0.67;;;9.50;99.90;;;;;;4952286;28;20271;-50
2024/01/04 01:42:38;;;;;;;2.00;0.70;;;9.50;99.90;;;;;;4956198;28;20878;-51
2024/01/04 01:45:04;;;;;;;1.93;0.80;;;9.60;99.90;;;;;;4956490;28;20671;-51
2024/01/04 01:47:30;;;;;;;2.20;0.60;;;9.40;99.90;;;;;;4936129;28;20231;-51
2024/01/04 01:49:56;;;;;;;1.33;1.23;;;9.50;99.90;;;;;;4957100;28;20221;-51
2024/01/04 01:52:22;;;;;;;1.13;0.77;;;9.50;99.90;;;;;;4957789;28;20234;-51
2024/01/04 01:54:49;;;;;;;1.53;0.83;;;9.30;99.90;;;;;;4957274;28;20264;-51
2024/01/04 01:57:16;;;;;;;0.60;0.60;;;9.30;99.90;;;;;;4956067;28;20205;-51
2024/01/04 01:59:44;;;;;;;1.03;0.77;;;9.30;99.90;;;;;;4938774;28;20226;-51
2024/01/04 02:02:10;;;;;;;1.13;0.80;;;9.40;99.90;;;;;;4960411;28;20210;-51
2024/01/04 02:04:35;;;;;;;2.00;0.70;;;9.40;99.90;;;;;;4957945;28;20220;-51
2024/01/04 02:07:01;;;;;;;1.43;0.87;;;9.40;99.90;;;;;;4955275;28;20292;-51
2024/01/04 02:09:27;;;;;;;1.50;1.20;;;9.40;99.90;;;;;;4938319;28;20314;-51
2024/01/04 02:12:05;;;;;;;0.80;0.80;;;9.40;99.90;;;;;;4956012;28;20290;-50
2024/01/04 02:14:31;;;;;;;0.80;0.60;;;9.40;99.90;;;;;;4959203;28;20299;-51
2024/01/04 02:16:56;;;;;;;5.00;0.93;;;9.30;99.90;;;;;;4939240;28;20282;-51
2024/01/04 02:19:24;;;;;;;0.97;0.67;;;9.30;99.90;;;;;;4955158;28;20292;-50
2024/01/04 02:21:49;;;;;;;1.57;0.90;;;9.30;99.90;;;;;;4956410;28;20206;-51
2024/01/04 02:24:15;;;;;;;0.67;0.67;;;9.30;99.90;;;;;;4957548;28;20262;-51
2024/01/04 02:26:40;;;;;;;1.10;0.63;;;9.30;99.90;;;;;;4958899;28;20710;-50
2024/01/04 02:29:06;;;;;;;0.93;0.60;;;9.40;99.90;;;;;;4938890;28;20266;-49
2024/01/04 02:31:31;;;;;;;3.70;0.77;;;9.40;99.90;;;;;;4955073;28;20264;-50
2024/01/04 02:33:57;;;;;;;5.30;1.00;;;9.40;99.90;;;;;;4956222;28;20953;-51
2024/01/04 02:36:22;;;;;;;1.17;0.77;;;9.40;99.90;;;;;;4955383;28;20229;-50
2024/01/04 02:38:48;;;;;;;0.87;0.70;;;9.50;99.90;;;;;;4954464;28;20232;-50
2024/01/04 02:41:13;;;;;;;1.47;1.07;;;9.50;99.90;;;;;;4956413;28;20212;-52
2024/01/04 02:43:39;;;;;;;2.43;0.80;;;9.30;99.90;;;;;;4948774;28;20567;-50
2024/01/04 02:46:04;;;;;;;3.37;0.70;;;9.40;99.90;;;;;;4937129;28;20284;-50
2024/01/04 02:48:30;;;;;;;0.47;0.47;;;9.50;99.90;;;;;;4952617;28;20201;-59
2024/01/04 02:50:55;;;;;;;1.40;0.77;;;9.50;99.90;;;;;;4941993;28;20594;-54
2024/01/04 02:53:21;;;;;;;1.13;0.50;;;9.50;99.90;;;;;;4956268;28;20206;-54
2024/01/04 02:55:46;;;;;;;2.67;1.23;;;9.50;99.90;;;;;;4936809;28;20222;-50
2024/01/04 02:58:12;;;;;;;0.40;0.40;;;9.50;99.90;;;;;;4958637;28;20259;-50
2024/01/04 03:00:37;;;;;;;2.93;0.83;;;9.40;99.90;;;;;;4956986;28;20202;-52
2024/01/04 03:03:03;;;;;;;1.80;0.50;;;9.40;99.90;;;;;;4956046;28;20214;-52
2024/01/04 03:05:28;;;;;;;0.87;0.80;;;9.40;99.90;;;;;;4956729;28;20201;-51
2024/01/04 03:07:54;;;;;;;2.10;0.47;;;9.10;99.90;;;;;;4958395;28;20226;-52
2024/01/04 03:10:19;;;;;;;0.30;0.30;;;9.10;99.90;;;;;;4959348;28;21004;-52
2024/01/04 03:12:45;;;;;;;1.07;0.50;;;8.90;99.90;;;;;;4954642;28;20668;-52
2024/01/04 03:15:12;;;;;;;3.53;0.93;;;8.80;99.90;;;;;;4957628;28;20259;-51
2024/01/04 03:17:37;;;;;;;1.00;0.77;;;8.60;99.90;;;;;;4956324;28;20282;-52
2024/01/04 03:20:04;;;;;;;0.60;0.40;;;8.70;99.90;;;;;;4956496;28;20194;-51
2024/01/04 03:22:29;;;;;;;2.17;0.67;;;8.80;99.90;;;;;;4958302;28;20200;-51
2024/01/04 03:24:55;;;;;;;0.87;0.50;;;8.70;99.90;;;;;;4954478;28;20972;-51
2024/01/04 03:27:20;;;;;;;1.17;0.73;;;8.40;99.90;;;;;;4959847;28;20281;-49
2024/01/04 03:29:46;;;;;;;0.80;0.60;;;8.30;99.90;;;;;;4939945;28;20198;-49
2024/01/04 03:32:11;;;;;;;3.03;0.77;;;8.30;99.90;;;;;;4956103;28;20572;-50
2024/01/04 03:34:37;;;;;;;0.80;0.77;;;8.30;99.90;;;;;;4956011;28;20290;-50
2024/01/04 03:37:03;;;;;;;0.80;0.80;;;8.30;99.90;;;;;;4957918;28;20271;-50
2024/01/04 03:39:28;;;;;;;1.53;0.60;;;8.20;99.90;;;;;;4959502;28;20197;-50
2024/01/04 03:41:54;;;;;;;1.43;0.70;;;8.40;99.90;;;;;;4958156;28;20212;-51
2024/01/04 03:44:19;;;;;;;2.43;1.10;;;8.50;99.90;;;;;;4952446;28;20204;-51
2024/01/04 03:46:45;;;;;;;1.57;0.50;;;8.60;99.90;;;;;;4960080;28;20365;-51
2024/01/04 03:49:11;;;;;;;0.70;0.70;;;8.40;99.90;;;;;;4960078;28;20228;-51
2024/01/04 03:51:36;;;;;;;2.00;0.93;;;8.40;99.90;;;;;;4957390;28;20751;-51
2024/01/04 03:54:03;;;;;;;0.97;0.83;;;8.50;99.90;;;;;;4943557;28;20209;-51
2024/01/04 03:56:29;;;;;;;2.30;0.73;;;8.50;99.90;;;;;;4958658;28;20236;-51
2024/01/04 03:58:54;;;;;;;2.27;1.10;;;8.40;99.90;;;;;;4955314;28;20205;-52
2024/01/04 04:01:20;;;;;;;2.27;1.43;;;8.50;99.90;;;;;;4960051;28;20205;-51
2024/01/04 04:03:45;;;;;;;1.27;1.10;;;8.50;99.90;;;;;;4958409;28;20223;-58
2024/01/04 04:06:11;;;;;;;2.27;0.97;;;8.50;99.90;;;;;;4931353;28;20201;-52
2024/01/04 04:08:36;;;;;;;2.50;1.00;;;8.40;99.90;;;;;;4954352;28;20204;-51
2024/01/04 04:11:02;;;;;;;0.70;0.70;;;8.50;99.90;;;;;;4962531;28;20215;-50
2024/01/04 04:13:27;;;;;;;1.23;0.93;;;8.40;99.90;;;;;;4940235;28;20289;-51
2024/01/04 04:15:53;;;;;;;1.43;1.30;;;8.40;99.90;;;;;;4957773;28;20577;-51
2024/01/04 04:18:18;;;;;;;0.67;0.67;;;8.30;99.90;;;;;;4953427;28;20588;-50
2024/01/04 04:20:44;;;;;;;2.33;0.90;;;8.20;99.90;;;;;;4958913;28;20208;-51
2024/01/04 04:23:09;;;;;;;0.60;0.60;;;8.30;99.90;;;;;;4957258;28;20597;-53
2024/01/04 04:25:37;;;;;;;1.80;1.03;;;8.30;99.90;;;;;;4963065;28;20202;-51
2024/01/04 04:28:03;;;;;;;1.17;0.80;;;8.30;99.90;;;;;;4956348;28;20206;-51
2024/01/04 04:30:29;;;;;;;1.57;0.70;;;8.30;99.90;;;;;;4960100;28;20202;-51
2024/01/04 04:32:55;;;;;;;2.43;1.37;;;8.30;99.90;;;;;;4958907;28;20206;-51
2024/01/04 04:35:21;;;;;;;1.70;0.80;;;8.30;99.90;;;;;;4956455;28;20263;-50
2024/01/04 04:37:47;;;;;;;1.00;0.80;;;8.40;99.90;;;;;;4959071;28;20228;-50
2024/01/04 04:40:12;;;;;;;0.97;0.90;;;8.40;99.90;;;;;;4957280;28;20241;-50
2024/01/04 04:42:38;;;;;;;0.80;0.80;;;8.30;99.90;;;;;;4961206;28;20201;-50
2024/01/04 04:45:04;;;;;;;1.37;1.23;;;8.40;99.90;;;;;;4960232;28;20208;-51
2024/01/04 04:47:30;;;;;;;0.60;0.57;;;8.30;99.90;;;;;;4954328;28;20208;-50
2024/01/04 04:49:56;;;;;;;0.80;0.80;;;8.20;99.90;;;;;;4956805;28;20209;-50
2024/01/04 04:52:22;;;;;;;1.37;1.00;;;8.30;99.90;;;;;;4955662;28;20317;-51
2024/01/04 04:54:48;;;;;;;0.63;0.63;;;8.40;99.90;;;;;;4959204;28;20336;-49
2024/01/04 04:57:13;;;;;;;0.97;0.97;;;8.30;99.90;;;;;;4959445;28;20216;-49
2024/01/04 04:59:39;;;;;;;0.87;0.83;;;8.30;99.90;;;;;;4957907;28;20246;-50
2024/01/04 05:02:04;;;;;;;3.60;1.40;;;8.30;99.90;;;;;;4958720;28;20293;-51
2024/01/04 05:04:30;;;;;;;0.77;0.77;;;8.40;99.90;;;;;;4958077;28;20239;-50
2024/01/04 05:06:55;;;;;;;0.80;0.80;;;8.30;99.90;;;;;;4959667;28;20283;-49
2024/01/04 05:09:21;;;;;;;4.23;1.27;;;8.30;99.90;;;;;;4956089;28;20205;-50
2024/01/04 05:11:46;;;;;;;1.33;1.23;;;8.30;99.90;;;;;;4961344;28;20202;-56
2024/01/04 05:14:12;;;;;;;2.43;1.47;;;8.30;99.90;;;;;;4958565;28;20205;-51
2024/01/04 05:16:37;;;;;;;3.13;1.20;;;8.20;99.90;;;;;;4941100;28;20653;-51
2024/01/04 05:19:03;;;;;;;3.27;1.57;;;8.20;99.90;;;;;;4956383;28;20194;-51
2024/01/04 05:21:35;;;;;;;1.00;1.00;;;8.30;99.90;;;;;;4958797;28;20251;-51
2024/01/04 05:24:01;;;;;;;4.47;1.10;;;8.20;99.90;;;;;;4959386;28;20197;-51
2024/01/04 05:26:26;;;;;;;1.97;1.87;;;8.10;99.90;;;;;;4938500;28;20204;-51
2024/01/04 05:28:52;;;;;;;1.00;1.00;;;8.10;99.90;;;;;;4961230;28;20198;-51
2024/01/04 05:31:19;;;;;;;1.20;1.10;;;8.30;99.90;;;;;;4959418;28;20511;-51
2024/01/04 05:33:46;;;;;;;1.70;1.60;;;8.30;99.90;;;;;;4956200;28;20197;-50
2024/01/04 05:36:12;;;;;;;1.80;1.70;;;8.30;99.90;;;;;;4940742;28;20233;-51
2024/01/04 05:38:37;;;;;;;1.13;1.13;;;8.30;99.90;;;;;;4958231;28;20193;-51
2024/01/04 05:41:04;;;;;;;1.53;1.43;;;8.30;99.90;;;;;;4958011;28;20201;-51
2024/01/04 05:43:30;;;;;;;1.20;1.10;;;8.30;99.90;;;;;;4952403;28;20639;-51
2024/01/04 05:45:56;;;;;;;1.60;1.50;;;8.20;99.90;;;;;;4955824;28;20664;-51
2024/01/04 05:48:22;;;;;;;1.63;1.53;;;8.30;99.90;;;;;;4957010;28;20894;-51
2024/01/04 05:50:49;;;;;;;1.20;1.20;;;8.20;99.90;;;;;;4954365;28;20229;-51
2024/01/04 05:53:17;;;;;;;2.03;1.40;;;8.20;99.90;;;;;;4952607;28;20221;-51
2024/01/04 05:55:42;;;;;;;1.73;1.60;;;8.20;99.90;;;;;;4958502;28;20335;-58
2024/01/04 05:58:08;;;;;;;1.87;1.67;;;8.20;99.90;;;;;;4959221;28;20288;-51
2024/01/04 06:00:33;;;;;;;2.13;1.57;;;8.00;99.90;;;;;;4938511;28;20189;-50
2024/01/04 06:02:59;;;;;;;1.67;1.53;;;8.00;99.90;;;;;;4957885;28;20223;-52
2024/01/04 06:05:26;;;;;;;1.83;1.60;;;8.00;99.90;;;;;;4954786;28;20293;-50
2024/01/04 06:07:51;;;;;;;1.67;1.53;;;7.90;99.90;;;;;;4951871;28;20204;-51
2024/01/04 06:10:17;;;;;;;3.13;1.53;;;7.80;99.90;;;;;;4952758;28;20198;-52
2024/01/04 06:12:43;;;;;;;1.60;1.50;;;7.90;99.90;;;;;;4945834;28;20528;-51
2024/01/04 06:15:10;;;;;;;2.93;1.83;;;7.90;99.90;;;;;;4947721;28;20222;-52
2024/01/04 06:17:35;;;;;;;2.23;1.70;;;8.00;99.90;;;;;;4948974;28;20616;-59
2024/01/04 06:20:01;;;;;;;4.80;1.97;;;7.90;99.90;;;;;;4925811;28;20210;-51
2024/01/04 06:22:26;;;;;;;2.07;1.90;;;8.00;99.90;;;;;;4948857;28;20270;-50
2024/01/04 06:24:52;;;;;;;2.53;2.07;;;7.90;99.90;;;;;;4950845;28;20574;-50
2024/01/04 06:27:17;;;;;;;1.93;1.40;;;8.00;99.90;;;;;;4946721;28;20671;-52
2024/01/04 06:29:44;;;;;;;1.43;1.13;;;7.90;99.90;;;;;;4948949;28;20206;-51
2024/01/04 06:32:10;;;;;;;1.37;1.37;;;8.10;99.90;;;;;;4928421;28;20194;-49
2024/01/04 06:34:35;;;;;;;1.03;1.03;;;8.10;99.90;;;;;;4949034;28;20205;-50
2024/01/04 06:37:01;;;;;;;1.30;1.20;;;7.90;99.90;;;;;;4938420;28;20292;-50
2024/01/04 06:39:28;;;;;;;1.20;1.20;;;7.90;99.90;;;;;;4948266;28;20186;-50
2024/01/04 06:41:54;;;;;;;1.60;1.47;;;7.70;99.90;;;;;;4953519;28;21909;-51
2024/01/04 06:44:19;;;;;;;1.37;1.00;;;7.40;99.90;;;;;;4929124;28;20300;-51
2024/01/04 06:46:45;;;;;;;1.00;1.00;;;7.30;99.90;;;;;;4943704;28;20737;-58
2024/01/04 06:49:10;;;;;;;1.30;1.13;;;7.30;99.90;;;;;;4942151;28;20953;-55
2024/01/04 06:51:36;;;;;;;3.63;1.20;;;7.30;99.90;;;;;;4949312;28;20651;-56
2024/01/04 06:54:02;;;;;;;2.37;1.07;;;7.30;99.90;;;;;;4938104;28;20225;-55
2024/01/04 06:56:28;;;;;;;1.30;1.20;;;7.30;99.90;;;;;;4953949;28;20702;-55
2024/01/04 06:58:54;;;;;;;0.80;0.80;;;7.30;99.90;;;;;;4933998;28;20625;-56
2024/01/04 07:01:19;;;;;;;2.20;1.03;;;7.30;99.90;;;;;;4947027;28;20485;-54
2024/01/04 07:03:46;;;;;;;1.33;1.23;;;7.20;99.90;;;;;;4932523;28;20213;-57
2024/01/04 07:06:12;;;;;;;1.50;1.07;;;7.30;99.90;;;;;;4953545;28;20209;-54
2024/01/04 07:08:38;;;;;;;1.17;1.13;;;7.40;99.90;;;;;;4956997;28;20844;-63
2024/01/04 07:11:05;;;;;;;1.83;1.10;;;7.40;99.90;;;;;;4964860;28;20205;-60
2024/01/04 07:13:32;;;;;;;2.63;1.20;;;7.50;99.90;;;;;;4930577;28;20230;-53
2024/01/04 07:15:58;;;;;;;2.57;1.30;;;7.20;99.90;;;;;;4946491;28;20633;-54
2024/01/04 07:18:23;;;;;;;0.60;0.60;;;7.20;99.90;;;;;;4950583;28;20275;-54
2024/01/04 07:20:49;;;;;;;1.20;0.80;;;7.40;99.90;;;;;;4950636;28;20416;-53
2024/01/04 07:23:14;;;;;;;0.33;0.33;;;7.20;99.90;;;;;;4936834;28;20201;-54
2024/01/04 07:25:40;;;;;;;0.40;0.40;;;7.10;99.90;;;;;;4956941;28;20211;-54
2024/01/04 07:28:05;;;;;;;0.43;0.40;;;7.20;99.90;;;;;;4965042;28;20204;-54
2024/01/04 07:30:31;;;;;;;0.50;0.50;;;7.00;99.90;;;;;;4952916;28;20220;-53
2024/01/04 07:32:57;;;;;;;0.27;0.27;;;6.90;99.90;;;;;;4928651;28;20221;-61
2024/01/04 07:35:23;;;;;;;0.37;0.30;;;7.20;99.90;;;;;;4943929;28;20300;-57
2024/01/04 07:37:49;;;;;;;1.47;0.50;;;6.90;99.90;;;;;;4933093;28;20217;-55
2024/01/04 07:40:14;;;;;;;0.40;0.40;;;6.90;99.90;;;;;;4946503;28;20213;-55
2024/01/04 07:42:40;;;;;;;0.57;0.57;;;7.00;99.90;;;;;;4950058;28;20217;-55
2024/01/04 07:45:06;;;;;;;0.50;0.50;;;7.00;99.90;;;;;;4930776;28;20601;-66
2024/01/04 07:47:31;;;;;;;0.57;0.57;;;7.00;99.90;;;;;;4948542;28;20699;-74
2024/01/04 07:49:57;;;;;;;0.40;0.40;;;6.50;99.90;;;;;;4944773;28;20415;-68
2024/01/04 07:52:22;;;;;;;1.90;0.73;;;6.20;99.90;;;;;;4956492;28;20271;-62
2024/01/04 07:54:48;;;;;;;0.40;0.40;;;6.10;99.90;;;;;;4959410;28;20205;-62
2024/01/04 07:57:13;;;;;;;2.10;0.83;;;6.10;99.90;;;;;;4950545;28;20723;-54
2024/01/04 07:59:39;;;;;;;1.63;0.50;;;6.00;99.90;;;;;;4930804;28;21640;-53
2024/01/04 08:02:05;;;;;;;0.70;0.70;;;6.00;99.90;;;;;;4949649;28;20357;-62
2024/01/04 08:04:32;;;;;;;0.70;0.70;;;6.00;99.90;;;;;;4952882;28;20969;-64
2024/01/04 08:06:58;;;;;;;0.93;0.83;;;6.00;99.90;;;;;;4937420;28;20218;-63
2024/01/04 08:09:23;;;;;;;0.73;0.73;;;5.90;99.90;;;;;;4957103;28;20241;-63
2024/01/04 08:11:50;;;;;;;1.50;0.70;;;5.90;99.90;;;;;;4950103;28;20258;-53
2024/01/04 08:14:16;;;;;;;1.57;0.87;;;5.90;99.90;;;;;;4951184;28;20258;-55
2024/01/04 08:16:41;;;;;;;0.50;0.50;;;5.90;99.90;;;;;;4951916;28;20945;-53
2024/01/04 08:19:07;;;;;;;0.90;0.43;;;5.90;99.90;;;;;;4945829;28;20229;-54
2024/01/04 08:21:32;;;;;;;1.40;0.60;;;5.90;99.90;;;;;;4934430;28;20244;-54
2024/01/04 08:23:58;;;;;;;0.50;0.50;;;5.80;99.90;;;;;;4944609;28;20265;-54
2024/01/04 08:26:24;;;;;;;0.63;0.63;;;5.80;99.90;;;;;;4947815;28;20239;-54
2024/01/04 08:28:49;;;;;;;3.20;0.97;;;5.60;99.90;;;;;;4948059;28;20201;-55
2024/01/04 08:31:15;;;;;;;1.10;0.50;;;5.50;99.90;;;;;;4950613;28;20279;-56
2024/01/04 08:33:41;;;;;;;1.93;1.10;;;5.50;99.90;;;;;;4935769;28;20268;-63
2024/01/04 08:36:07;;;;;;;0.60;0.60;;;5.40;99.90;;;;;;4961339;28;21076;-53
2024/01/04 08:38:33;;;;;;;1.93;1.20;;;5.20;99.90;;;;;;4958598;28;20614;-53
2024/01/04 08:40:59;;;;;;;1.50;1.40;;;5.00;99.90;;;;;;4954628;28;20718;-54
2024/01/04 08:43:25;;;;;;;1.13;1.03;;;5.00;99.90;;;;;;4953343;28;20330;-54
2024/01/04 08:45:50;;;;;;;2.43;1.47;;;4.90;99.90;;;;;;4962181;28;20209;-57
2024/01/04 08:48:16;;;;;;;1.10;1.10;;;4.90;99.90;;;;;;4957503;28;20503;-54
2024/01/04 08:50:42;;;;;;;2.27;1.53;;;4.90;99.90;;;;;;4935474;28;20322;-54
2024/01/04 08:53:07;;;;;;;1.20;1.20;;;4.80;99.90;;;;;;4961685;28;20232;-53
2024/01/04 08:55:33;;;;;;;1.63;0.93;;;4.80;99.90;;;;;;4942687;28;20216;-53
2024/01/04 08:57:59;;;;;;;1.47;1.10;;;4.50;99.90;;;;;;4956865;28;20278;-54
2024/01/04 09:00:24;;;;;;;1.53;1.20;;;4.50;99.90;;;;;;4943912;28;20210;-60
2024/01/04 09:02:50;;;;;;;1.23;1.20;;;4.40;99.90;;;;;;4959958;28;20305;-53
2024/01/04 09:05:15;;;;;;;0.70;0.70;;;4.40;99.90;;;;;;4950523;28;20206;-53
2024/01/04 09:07:41;;;;;;;1.10;1.00;;;4.30;99.90;;;;;;4930445;28;20201;-54
2024/01/04 09:10:08;;;;;;;0.50;0.50;;;4.30;99.90;;;;;;4950534;28;20552;-56
2024/01/04 09:12:33;;;;;;;2.07;0.77;;;4.30;99.90;;;;;;4953496;28;20201;-53
2024/01/04 09:14:59;;;;;;;0.87;0.87;;;4.30;99.90;;;;;;4949322;28;20275;-54
2024/01/04 09:17:25;;;;;;;0.63;0.63;;;4.20;99.90;;;;;;4958090;28;20761;-54
2024/01/04 09:19:51;;;;;;;0.47;0.47;;;4.20;99.90;;;;;;4935556;28;20201;-65
2024/01/04 09:22:17;;;;;;;0.97;0.80;;;4.20;99.90;;;;;;4957328;28;20238;-54
2024/01/04 09:24:43;;;;;;;0.63;0.63;;;4.10;99.90;;;;;;4956961;28;20293;-55
2024/01/04 09:27:08;;;;;;;2.00;1.23;;;4.10;99.90;;;;;;4953261;28;20217;-55
2024/01/04 09:29:34;;;;;;;0.90;0.90;;;4.10;99.90;;;;;;4960282;28;20699;-53
2024/01/04 09:32:01;;;;;;;0.77;0.77;;;4.20;99.90;;;;;;4953651;28;20553;-55
2024/01/04 09:34:27;;;;;;;0.87;0.87;;;4.10;99.90;;;;;;4956352;28;20229;-62
2024/01/04 09:36:54;;;;;;;0.83;0.83;;;4.10;99.90;;;;;;4941375;28;20289;-55
2024/01/04 09:39:20;;;;;;;0.40;0.37;;;4.10;99.90;;;;;;4956784;28;20205;-55
2024/01/04 09:41:47;;;;;;;1.30;1.20;;;4.10;99.90;;;;;;4960586;28;20849;-55
2024/01/04 09:44:14;;;;;;;1.60;1.50;;;4.00;99.90;;;;;;4937952;28;20288;-53
2024/01/04 09:46:40;;;;;;;3.47;1.27;;;3.90;99.90;;;;;;4936506;28;20209;-53
2024/01/04 09:49:07;;;;;;;1.57;1.47;;;3.80;99.90;;;;;;4941898;28;20299;-54
2024/01/04 09:51:34;;;;;;;1.47;1.37;;;3.80;99.90;;;;;;4950362;28;20216;-54
2024/01/04 09:54:01;;;;;;;1.27;1.20;;;3.90;99.90;;;;;;4954440;28;20295;-54
2024/01/04 09:56:28;;;;;;;3.83;1.30;;;3.90;99.90;;;;;;4958362;28;20649;-54
2024/01/04 09:58:56;;;;;;;1.40;1.30;;;3.90;99.90;;;;;;4951243;28;20209;-54
2024/01/04 10:01:31;;;;;;;3.17;1.40;;;3.90;99.90;;;;;;4959708;28;20255;-54
2024/01/04 10:04:03;;;;;;;3.83;1.57;;;4.00;99.90;;;;;;4957142;28;20224;-53
2024/01/04 10:06:35;;;;;;;1.20;1.10;;;4.00;99.90;;;;;;4957806;28;20276;-54
2024/01/04 10:09:24;;;;;;;1.67;1.47;;;4.00;99.90;;;;;;4956329;28;20204;-53
2024/01/04 10:12:08;;;;;;;2.73;0.93;;;4.00;99.90;;;;;;4950894;28;20262;-55
2024/01/04 10:14:35;;;;;;;1.30;1.20;;;4.00;99.90;;;;;;4937019;28;20693;-54
2024/01/04 10:17:04;;;;;;;0.63;0.63;;;4.00;99.90;;;;;;4952480;28;20221;-54
2024/01/04 10:19:31;;;;;;;1.47;1.37;;;3.90;99.90;;;;;;4959366;28;20228;-54
2024/01/04 10:22:03;;;;;;;1.37;0.90;;;3.90;99.90;;;;;;4956627;28;20311;-53
2024/01/04 10:24:31;;;;;;;1.80;1.07;;;3.90;99.90;;;;;;4956724;28;20282;-54
2024/01/04 10:26:59;;;;;;;1.33;0.90;;;4.00;99.90;;;;;;4958112;28;20201;-54
2024/01/04 10:29:28;;;;;;;1.63;0.80;;;4.00;99.90;;;;;;4934997;28;20351;-56
2024/01/04 10:32:04;;;;;;;0.60;0.60;;;4.10;99.90;;;;;;4951888;28;20220;-54
2024/01/04 10:34:33;;;;;;;1.43;0.90;;;4.00;99.90;;;;;;4957821;28;20229;-54
2024/01/04 10:37:21;;;;;;;1.23;1.00;;;4.10;99.90;;;;;;4952227;28;20217;-54
2024/01/04 10:39:57;;;;;;;0.50;0.50;;;4.10;99.90;;;;;;4952003;28;20217;-54
2024/01/04 10:42:23;;;;;;;0.77;0.77;;;4.10;99.90;;;;;;4956751;28;20213;-54
2024/01/04 10:44:52;;;;;;;1.50;0.87;;;4.10;99.90;;;;;;4941285;28;20213;-53
2024/01/04 10:47:18;;;;;;;0.83;0.60;;;4.10;99.90;;;;;;4955372;28;20650;-53
2024/01/04 10:49:47;;;;;;;1.20;1.07;;;4.10;99.90;;;;;;4950863;28;20709;-54
2024/01/04 10:52:17;;;;;;;1.00;0.80;;;4.10;99.90;;;;;;4960622;28;20826;-54
2024/01/04 10:54:44;;;;;;;2.00;1.03;;;4.00;99.90;;;;;;4954818;28;20197;-54
2024/01/04 10:57:12;;;;;;;1.60;1.00;;;4.00;99.90;;;;;;4954265;28;20584;-54
2024/01/04 10:59:39;;;;;;;0.77;0.77;;;4.10;99.90;;;;;;4958989;28;20217;-53
2024/01/04 11:02:07;;;;;;;1.30;0.87;;;4.10;99.90;;;;;;4957846;28;20229;-54
2024/01/04 11:04:34;;;;;;;1.20;0.90;;;4.10;99.90;;;;;;4959113;28;20297;-54
2024/01/04 11:07:01;;;;;;;0.77;0.67;;;4.00;99.90;;;;;;4934289;28;20201;-54
2024/01/04 11:09:26;;;;;;;0.60;0.60;;;4.00;99.90;;;;;;4954294;28;20215;-54
2024/01/04 11:11:53;;;;;;;0.93;0.80;;;4.00;99.90;;;;;;4954104;28;20570;-54
2024/01/04 11:14:20;;;;;;;1.20;1.00;;;3.90;99.90;;;;;;4954423;28;20213;-54
2024/01/04 11:16:58;;;;;;;0.73;0.60;;;4.00;99.90;;;;;;4953803;28;20217;-54
2024/01/04 11:19:35;;;;;;;1.00;0.87;;;4.00;99.90;;;;;;4936963;28;20206;-54
2024/01/04 11:22:48;;;;;;;1.53;0.60;;;3.90;99.90;;;;;;4955916;28;20236;-55
2024/01/04 11:25:47;;;;;;;1.77;0.87;;;4.00;99.90;;;;;;4960702;28;20691;-54
2024/01/04 11:28:12;;;;;;;0.67;0.67;;;3.80;99.90;;;;;;4953246;28;20197;-54
2024/01/04 11:30:38;;;;;;;0.67;0.67;;;3.70;99.90;;;;;;4938927;28;20201;-54
2024/01/04 11:33:04;;;;;;;0.60;0.60;;;3.70;99.90;;;;;;4955990;28;20204;-54
2024/01/04 11:35:35;;;;;;;1.23;0.90;;;3.70;99.90;;;;;;4940393;28;20216;-55
2024/01/04 11:38:06;;;;;;;0.80;0.80;;;3.70;99.90;;;;;;4955896;28;20209;-53
2024/01/04 11:40:32;;;;;;;1.03;0.83;;;3.70;99.90;;;;;;4949367;28;20689;-55
2024/01/04 11:43:00;;;;;;;1.00;0.90;;;3.70;99.90;;;;;;4937384;28;20204;-54
2024/01/04 11:45:25;;;;;;;0.70;0.70;;;3.70;99.90;;;;;;4958407;28;20196;-54
2024/01/04 11:47:51;;;;;;;0.90;0.90;;;3.60;99.90;;;;;;4960125;28;20305;-54
2024/01/04 11:50:26;;;;;;;0.77;0.77;;;3.50;99.90;;;;;;4952340;28;20211;-54
2024/01/04 11:53:05;;;;;;;0.80;0.80;;;3.50;99.90;;;;;;4951730;28;20621;-53
2024/01/04 11:55:33;;;;;;;0.97;0.80;;;3.50;99.90;;;;;;4947509;28;20300;-57
2024/01/04 11:58:08;;;;;;;0.93;0.93;;;3.60;99.90;;;;;;4953242;28;20198;-56
2024/01/04 12:00:36;;;;;;;0.90;0.90;;;3.50;99.90;;;;;;4953531;28;20201;-55
2024/01/04 12:03:02;;;;;;;0.90;0.90;;;3.40;99.90;;;;;;4959440;28;20306;-54
2024/01/04 12:05:28;;;;;;;0.60;0.60;;;3.40;99.90;;;;;;4944572;28;20379;-56
2024/01/04 12:07:54;;;;;;;1.40;0.90;;;3.30;99.90;;;;;;4942718;28;20282;-53
2024/01/04 12:10:20;;;;;;;0.60;0.60;;;3.10;99.90;;;;;;4957052;28;20615;-54
2024/01/04 12:12:48;;;;;;;0.77;0.77;;;3.10;99.90;;;;;;4957039;28;20190;-55
2024/01/04 12:15:20;;;;;;;0.97;0.90;;;3.10;99.90;;;;;;4956339;28;20248;-53
2024/01/04 12:17:46;;;;;;;0.90;0.90;;;3.10;99.90;;;;;;4959441;28;20198;-53
2024/01/04 12:20:12;;;;;;;1.27;1.17;;;3.00;99.90;;;;;;4952684;28;20614;-54
2024/01/04 12:22:41;;;;;;;1.10;1.00;;;3.10;99.90;;;;;;4957117;28;20197;-54
2024/01/04 12:25:07;;;;;;;1.10;1.00;;;3.10;99.90;;;;;;4992536;23;20243;-54
2024/01/04 12:27:36;;;;;;;1.20;1.20;;;3.00;99.90;;;;;;5032750;28;20202;-55
2024/01/04 12:30:05;;;;;;;1.43;0.97;;;3.00;99.90;;;;;;5026009;28;20196;-53
2024/01/04 12:32:31;;;;;;;1.53;1.03;;;3.10;99.90;;;;;;5029649;28;20210;-54
2024/01/04 12:34:57;;;;;;;2.13;1.10;;;3.10;99.90;;;;;;5042045;28;20202;-53
2024/01/04 12:37:22;;;;;;;1.80;1.70;;;3.10;99.90;;;;;;5039026;28;20213;-54
2024/01/04 12:39:49;;;;;;;1.37;0.80;;;3.10;99.90;;;;;;5039016;28;20240;-53
2024/01/04 12:42:15;;;;;;;1.40;1.00;;;3.10;99.90;;;;;;5008081;28;20213;-54
2024/01/04 12:44:40;;;;;;;2.17;1.37;;;3.10;99.90;;;;;;5033190;28;20724;-54
2024/01/04 12:47:09;;;;;;;1.57;1.27;;;3.10;99.90;;;;;;5015048;28;20220;-54
2024/01/04 12:49:36;;;;;;;2.57;1.37;;;3.10;99.90;;;;;;5013486;28;20456;-53
2024/01/04 12:52:10;;;;;;;1.10;1.00;;;3.20;99.90;;;;;;5031390;28;20207;-54
2024/01/04 12:54:35;;;;;;;2.13;1.10;;;3.10;99.90;;;;;;4997264;28;20210;-59